AFL0875 UHHH-UHSS
Flight info
| Callsign | AFL0875 |
|---|---|
| Flight time | 1h 3m |
| Altitude | 37000 |
| Route | NEBES4T NEBES DCT KELUL KELUL2 |
| Aircraft | A320/M-SDE3FGHIRWY/LB1 |
Departure
| Time | 2026-04-22 17:41 |
|---|---|
| Airport | Khabarovsk Novy Airport (UHHH) |
Arrival
| Time | 2026-04-22 18:44 |
|---|---|
| Airport | Yuzhno-Sakhalinsk International Airport (UHSS) |
| Time | Latitude | Longitude | Altitude | Speed | Heading |
|---|---|---|---|---|---|
| 2026-04-22 16:54 | 48.52348 | 135.16948 | 237 ft | 0 kts | 44° |
| 2026-04-22 17:28 | 48.52349 | 135.16949 | 209 ft | 2 kts | 44° |
| 2026-04-22 17:28 | 48.52368 | 135.17044 | 237 ft | 11 kts | 86° |
| 2026-04-22 17:28 | 48.52385 | 135.17129 | 237 ft | 8 kts | 52° |
| 2026-04-22 17:28 | 48.52425 | 135.17177 | 237 ft | 7 kts | 40° |
| 2026-04-22 17:29 | 48.52457 | 135.17226 | 237 ft | 9 kts | 47° |
| 2026-04-22 17:29 | 48.52523 | 135.17341 | 237 ft | 18 kts | 68° |
| 2026-04-22 17:29 | 48.52463 | 135.17496 | 236 ft | 19 kts | 133° |
| 2026-04-22 17:29 | 48.52370 | 135.17649 | 238 ft | 21 kts | 131° |
| 2026-04-22 17:30 | 48.52268 | 135.17823 | 235 ft | 23 kts | 131° |
| 2026-04-22 17:30 | 48.52172 | 135.17987 | 239 ft | 5 kts | 135° |
| 2026-04-22 17:30 | 48.52172 | 135.17988 | 239 ft | 0 kts | 135° |
| 2026-04-22 17:31 | 48.52146 | 135.18028 | 240 ft | 10 kts | 133° |
| 2026-04-22 17:31 | 48.52113 | 135.18126 | 242 ft | 15 kts | 88° |
| 2026-04-22 17:31 | 48.52205 | 135.18291 | 241 ft | 28 kts | 43° |
| 2026-04-22 17:31 | 48.52368 | 135.18509 | 242 ft | 32 kts | 43° |
| 2026-04-22 17:32 | 48.52532 | 135.18732 | 243 ft | 32 kts | 42° |
| 2026-04-22 17:32 | 48.52700 | 135.18963 | 243 ft | 37 kts | 42° |
| 2026-04-22 17:32 | 48.52894 | 135.19234 | 242 ft | 38 kts | 44° |
| 2026-04-22 17:32 | 48.53080 | 135.19478 | 244 ft | 31 kts | 42° |
| 2026-04-22 17:33 | 48.53186 | 135.19625 | 244 ft | 32 kts | 43° |
| 2026-04-22 17:33 | 48.53408 | 135.19929 | 243 ft | 33 kts | 43° |
| 2026-04-22 17:33 | 48.53581 | 135.20160 | 243 ft | 33 kts | 41° |
| 2026-04-22 17:33 | 48.53749 | 135.20388 | 245 ft | 32 kts | 43° |
| 2026-04-22 17:34 | 48.53916 | 135.20618 | 245 ft | 32 kts | 42° |
| 2026-04-22 17:34 | 48.54062 | 135.20790 | 244 ft | 21 kts | 10° |
| 2026-04-22 17:34 | 48.54108 | 135.20858 | 244 ft | 9 kts | 142° |
| 2026-04-22 17:34 | 48.54073 | 135.20829 | 244 ft | 0 kts | 225° |
| 2026-04-22 17:40 | 48.54051 | 135.20797 | 244 ft | 27 kts | 225° |
| 2026-04-22 17:40 | 48.53711 | 135.20335 | 244 ft | 100 kts | 222° |
| 2026-04-22 17:40 | 48.53047 | 135.19432 | 244 ft | 154 kts | 222° |
| 2026-04-22 17:40 | 48.52221 | 135.18300 | 802 ft | 157 kts | 222° |
| 2026-04-22 17:41 | 48.51400 | 135.17197 | 1516 ft | 162 kts | 223° |
| 2026-04-22 17:41 | 48.50394 | 135.16251 | 1901 ft | 184 kts | 193° |
| 2026-04-22 17:41 | 48.49059 | 135.16417 | 2216 ft | 208 kts | 155° |
| 2026-04-22 17:41 | 48.47951 | 135.17939 | 2629 ft | 231 kts | 116° |
| 2026-04-22 17:42 | 48.47475 | 135.20367 | 3164 ft | 252 kts | 101° |
| 2026-04-22 17:42 | 48.47127 | 135.22995 | 4060 ft | 259 kts | 99° |
| 2026-04-22 17:42 | 48.46792 | 135.25687 | 5043 ft | 263 kts | 99° |
| 2026-04-22 17:42 | 48.46450 | 135.28413 | 6028 ft | 266 kts | 99° |
| 2026-04-22 17:43 | 48.46097 | 135.31173 | 6980 ft | 270 kts | 100° |
| 2026-04-22 17:43 | 48.45734 | 135.33960 | 7922 ft | 273 kts | 100° |
| 2026-04-22 17:43 | 48.45361 | 135.36777 | 8869 ft | 276 kts | 101° |
| 2026-04-22 17:43 | 48.44979 | 135.39627 | 9804 ft | 279 kts | 101° |
| 2026-04-22 17:44 | 48.44582 | 135.42569 | 10342 ft | 297 kts | 101° |
| 2026-04-22 17:44 | 48.44153 | 135.45731 | 10697 ft | 318 kts | 101° |
| 2026-04-22 17:44 | 48.43702 | 135.49050 | 11392 ft | 325 kts | 101° |
| 2026-04-22 17:44 | 48.43251 | 135.52369 | 12176 ft | 330 kts | 101° |
| 2026-04-22 17:45 | 48.42787 | 135.55779 | 12999 ft | 334 kts | 100° |
| 2026-04-22 17:45 | 48.42316 | 135.59231 | 13756 ft | 339 kts | 100° |
| 2026-04-22 17:45 | 48.41838 | 135.62726 | 14440 ft | 343 kts | 101° |
| 2026-04-22 17:45 | 48.41353 | 135.66269 | 15123 ft | 347 kts | 101° |
| 2026-04-22 17:46 | 48.40860 | 135.69850 | 15798 ft | 351 kts | 101° |
| 2026-04-22 17:46 | 48.40359 | 135.73476 | 16480 ft | 355 kts | 101° |
| 2026-04-22 17:46 | 48.39851 | 135.77131 | 17169 ft | 359 kts | 101° |
| 2026-04-22 17:46 | 48.39340 | 135.80793 | 17827 ft | 363 kts | 101° |
| 2026-04-22 17:47 | 48.38818 | 135.84543 | 18440 ft | 367 kts | 101° |
| 2026-04-22 17:47 | 48.38291 | 135.88324 | 19014 ft | 371 kts | 102° |
| 2026-04-22 17:47 | 48.37759 | 135.92143 | 19590 ft | 374 kts | 102° |
| 2026-04-22 17:47 | 48.37221 | 135.95997 | 20166 ft | 377 kts | 102° |
| 2026-04-22 17:48 | 48.36684 | 135.99840 | 20722 ft | 381 kts | 102° |
| 2026-04-22 17:48 | 48.36136 | 136.03758 | 21272 ft | 384 kts | 102° |
| 2026-04-22 17:48 | 48.35578 | 136.07720 | 21811 ft | 388 kts | 102° |
| 2026-04-22 17:48 | 48.35014 | 136.11697 | 22342 ft | 391 kts | 102° |
| 2026-04-22 17:49 | 48.34439 | 136.15729 | 22870 ft | 395 kts | 102° |
| 2026-04-22 17:49 | 48.33867 | 136.19721 | 23382 ft | 398 kts | 102° |
| 2026-04-22 17:49 | 48.33375 | 136.23833 | 23805 ft | 401 kts | 95° |
| 2026-04-22 17:49 | 48.33180 | 136.28028 | 24227 ft | 403 kts | 93° |
| 2026-04-22 17:50 | 48.32996 | 136.32254 | 24649 ft | 406 kts | 93° |
| 2026-04-22 17:50 | 48.32808 | 136.36509 | 25076 ft | 409 kts | 93° |
| 2026-04-22 17:50 | 48.32616 | 136.40784 | 25496 ft | 411 kts | 94° |
| 2026-04-22 17:50 | 48.32418 | 136.45089 | 25910 ft | 413 kts | 94° |
| 2026-04-22 17:51 | 48.32220 | 136.49360 | 26319 ft | 416 kts | 94° |
| 2026-04-22 17:51 | 48.32018 | 136.53707 | 26722 ft | 418 kts | 94° |
| 2026-04-22 17:51 | 48.31815 | 136.58094 | 27128 ft | 421 kts | 94° |
| 2026-04-22 17:51 | 48.31607 | 136.62506 | 27516 ft | 423 kts | 94° |
| 2026-04-22 17:52 | 48.31394 | 136.66928 | 27900 ft | 426 kts | 94° |
| 2026-04-22 17:52 | 48.31174 | 136.71393 | 28288 ft | 429 kts | 94° |
| 2026-04-22 17:52 | 48.30953 | 136.75815 | 28660 ft | 431 kts | 95° |
| 2026-04-22 17:52 | 48.30501 | 136.80288 | 29037 ft | 434 kts | 102° |
| 2026-04-22 17:53 | 48.29853 | 136.84723 | 29410 ft | 436 kts | 102° |
| 2026-04-22 17:53 | 48.29196 | 136.89194 | 29775 ft | 439 kts | 102° |
| 2026-04-22 17:53 | 48.28536 | 136.93681 | 30076 ft | 441 kts | 102° |
| 2026-04-22 17:53 | 48.27873 | 136.98202 | 30337 ft | 444 kts | 102° |
| 2026-04-22 17:54 | 48.27210 | 137.02741 | 30590 ft | 447 kts | 102° |
| 2026-04-22 17:54 | 48.26539 | 137.07316 | 30833 ft | 450 kts | 102° |
| 2026-04-22 17:54 | 48.25861 | 137.11920 | 31074 ft | 452 kts | 102° |
| 2026-04-22 17:54 | 48.25175 | 137.16551 | 31307 ft | 455 kts | 102° |
| 2026-04-22 17:55 | 48.24716 | 137.19626 | 31484 ft | 457 kts | 103° |
| 2026-04-22 17:55 | 48.23783 | 137.25856 | 31946 ft | 457 kts | 103° |
| 2026-04-22 17:55 | 48.23085 | 137.30511 | 32296 ft | 457 kts | 103° |
| 2026-04-22 17:55 | 48.22383 | 137.35168 | 32637 ft | 457 kts | 103° |
| 2026-04-22 17:56 | 48.21681 | 137.39816 | 32974 ft | 458 kts | 103° |
| 2026-04-22 17:56 | 48.20977 | 137.44476 | 33323 ft | 458 kts | 103° |
| 2026-04-22 17:56 | 48.20273 | 137.49141 | 33653 ft | 458 kts | 103° |
| 2026-04-22 17:56 | 48.19567 | 137.53806 | 33976 ft | 459 kts | 103° |
| 2026-04-22 17:57 | 48.18859 | 137.58469 | 34255 ft | 459 kts | 103° |
| 2026-04-22 17:57 | 48.18157 | 137.63081 | 34541 ft | 459 kts | 103° |
| 2026-04-22 17:57 | 48.17442 | 137.67751 | 34809 ft | 460 kts | 103° |
| 2026-04-22 17:57 | 48.16723 | 137.72424 | 35063 ft | 460 kts | 103° |
| 2026-04-22 17:58 | 48.15998 | 137.77105 | 35308 ft | 461 kts | 103° |
| 2026-04-22 17:58 | 48.15272 | 137.81797 | 35547 ft | 462 kts | 103° |
| 2026-04-22 17:58 | 48.14549 | 137.86487 | 35782 ft | 462 kts | 103° |
| 2026-04-22 17:58 | 48.13825 | 137.91187 | 36009 ft | 463 kts | 103° |
| 2026-04-22 17:59 | 48.13093 | 137.95894 | 36232 ft | 463 kts | 103° |
| 2026-04-22 17:59 | 48.12353 | 138.00598 | 36454 ft | 464 kts | 103° |
| 2026-04-22 17:59 | 48.11610 | 138.05310 | 36667 ft | 465 kts | 103° |
| 2026-04-22 17:59 | 48.10866 | 138.10025 | 36839 ft | 466 kts | 104° |
| 2026-04-22 18:00 | 48.10374 | 138.13141 | 36879 ft | 465 kts | 103° |
| 2026-04-22 18:00 | 48.08647 | 138.24080 | 36883 ft | 463 kts | 104° |
| 2026-04-22 18:01 | 48.07144 | 138.33488 | 36881 ft | 463 kts | 104° |
| 2026-04-22 18:01 | 48.05638 | 138.42853 | 36879 ft | 463 kts | 104° |
| 2026-04-22 18:02 | 48.04137 | 138.52154 | 36876 ft | 463 kts | 104° |
| 2026-04-22 18:02 | 48.02617 | 138.61516 | 36871 ft | 463 kts | 104° |
| 2026-04-22 18:03 | 48.01093 | 138.70875 | 36868 ft | 463 kts | 104° |
| 2026-04-22 18:03 | 47.99561 | 138.80231 | 36864 ft | 463 kts | 104° |
| 2026-04-22 18:04 | 47.98027 | 138.89583 | 36860 ft | 463 kts | 104° |
| 2026-04-22 18:04 | 47.96472 | 138.98939 | 36856 ft | 464 kts | 104° |
| 2026-04-22 18:05 | 47.94915 | 139.08231 | 36854 ft | 464 kts | 104° |
| 2026-04-22 18:05 | 47.93356 | 139.17566 | 36852 ft | 464 kts | 104° |
| 2026-04-22 18:06 | 47.91787 | 139.26914 | 36849 ft | 464 kts | 104° |
| 2026-04-22 18:06 | 47.90208 | 139.36244 | 36846 ft | 464 kts | 105° |
| 2026-04-22 18:07 | 47.88884 | 139.44000 | 36844 ft | 464 kts | 105° |
| 2026-04-22 18:07 | 47.87029 | 139.54837 | 36842 ft | 464 kts | 105° |
| 2026-04-22 18:08 | 47.85426 | 139.64164 | 36839 ft | 464 kts | 105° |
| 2026-04-22 18:08 | 47.83810 | 139.73494 | 36836 ft | 465 kts | 105° |
| 2026-04-22 18:09 | 47.82188 | 139.82813 | 36836 ft | 465 kts | 105° |
| 2026-04-22 18:09 | 47.80550 | 139.92137 | 36837 ft | 465 kts | 105° |
| 2026-04-22 18:10 | 47.78911 | 140.01456 | 36835 ft | 465 kts | 105° |
| 2026-04-22 18:10 | 47.77284 | 140.10711 | 36835 ft | 465 kts | 105° |
| 2026-04-22 18:11 | 47.75636 | 140.20023 | 36836 ft | 466 kts | 105° |
| 2026-04-22 18:11 | 47.73972 | 140.29328 | 36634 ft | 467 kts | 105° |
| 2026-04-22 18:11 | 47.73132 | 140.33989 | 36354 ft | 466 kts | 105° |
| 2026-04-22 18:12 | 47.72291 | 140.38660 | 35565 ft | 470 kts | 105° |
| 2026-04-22 18:12 | 47.71440 | 140.43380 | 34705 ft | 474 kts | 105° |
| 2026-04-22 18:12 | 47.70875 | 140.46516 | 34303 ft | 474 kts | 105° |
| 2026-04-22 18:12 | 47.69738 | 140.52817 | 33490 ft | 470 kts | 105° |
| 2026-04-22 18:13 | 47.68891 | 140.57479 | 32897 ft | 466 kts | 105° |
| 2026-04-22 18:13 | 47.68042 | 140.62113 | 32303 ft | 461 kts | 105° |
| 2026-04-22 18:13 | 47.67204 | 140.66682 | 31724 ft | 457 kts | 105° |
| 2026-04-22 18:13 | 47.66374 | 140.71219 | 31156 ft | 453 kts | 105° |
| 2026-04-22 18:14 | 47.65568 | 140.75650 | 30595 ft | 448 kts | 105° |
| 2026-04-22 18:14 | 47.64758 | 140.80104 | 30076 ft | 444 kts | 105° |
| 2026-04-22 18:14 | 47.63950 | 140.84499 | 29494 ft | 438 kts | 105° |
| 2026-04-22 18:14 | 47.63146 | 140.88846 | 28882 ft | 434 kts | 105° |
| 2026-04-22 18:15 | 47.62606 | 140.91745 | 28548 ft | 430 kts | 105° |
| 2026-04-22 18:15 | 47.61826 | 140.95925 | 28039 ft | 424 kts | 105° |
| 2026-04-22 18:15 | 47.61050 | 141.00115 | 27539 ft | 418 kts | 105° |
| 2026-04-22 18:15 | 47.60287 | 141.04253 | 27056 ft | 413 kts | 105° |
| 2026-04-22 18:16 | 47.59535 | 141.08326 | 26565 ft | 407 kts | 105° |
| 2026-04-22 18:16 | 47.58788 | 141.12353 | 26088 ft | 402 kts | 106° |
| 2026-04-22 18:16 | 47.58037 | 141.16329 | 25623 ft | 398 kts | 106° |
| 2026-04-22 18:16 | 47.57288 | 141.20254 | 25169 ft | 393 kts | 106° |
| 2026-04-22 18:17 | 47.56548 | 141.24138 | 24716 ft | 389 kts | 106° |
| 2026-04-22 18:17 | 47.55819 | 141.27972 | 24270 ft | 385 kts | 106° |
| 2026-04-22 18:17 | 47.55098 | 141.31778 | 23833 ft | 382 kts | 106° |
| 2026-04-22 18:17 | 47.54384 | 141.35545 | 23399 ft | 379 kts | 106° |
| 2026-04-22 18:18 | 47.53671 | 141.39296 | 22879 ft | 377 kts | 106° |
| 2026-04-22 18:18 | 47.52962 | 141.43021 | 22366 ft | 374 kts | 106° |
| 2026-04-22 18:18 | 47.52259 | 141.46716 | 21862 ft | 372 kts | 106° |
| 2026-04-22 18:18 | 47.51558 | 141.50394 | 21359 ft | 370 kts | 106° |
| 2026-04-22 18:19 | 47.50865 | 141.54011 | 20877 ft | 368 kts | 106° |
| 2026-04-22 18:19 | 47.50170 | 141.57638 | 20526 ft | 364 kts | 106° |
| 2026-04-22 18:19 | 47.49481 | 141.61230 | 20261 ft | 361 kts | 106° |
| 2026-04-22 18:19 | 47.48798 | 141.64786 | 19997 ft | 359 kts | 107° |
| 2026-04-22 18:20 | 47.48115 | 141.68330 | 19738 ft | 357 kts | 107° |
| 2026-04-22 18:20 | 47.47438 | 141.71831 | 19356 ft | 353 kts | 107° |
| 2026-04-22 18:20 | 47.46765 | 141.75314 | 18907 ft | 351 kts | 107° |
| 2026-04-22 18:20 | 47.46095 | 141.78783 | 18466 ft | 351 kts | 107° |
| 2026-04-22 18:21 | 47.45425 | 141.82246 | 18012 ft | 350 kts | 107° |
| 2026-04-22 18:21 | 47.44754 | 141.85699 | 17540 ft | 348 kts | 107° |
| 2026-04-22 18:21 | 47.44087 | 141.89119 | 17111 ft | 345 kts | 107° |
| 2026-04-22 18:21 | 47.43420 | 141.92521 | 16678 ft | 343 kts | 107° |
| 2026-04-22 18:22 | 47.42755 | 141.95896 | 16257 ft | 341 kts | 107° |
| 2026-04-22 18:22 | 47.42091 | 141.99258 | 15836 ft | 340 kts | 107° |
| 2026-04-22 18:22 | 47.41430 | 142.02611 | 15419 ft | 339 kts | 107° |
| 2026-04-22 18:22 | 47.40775 | 142.05949 | 15005 ft | 338 kts | 107° |
| 2026-04-22 18:23 | 47.40122 | 142.09277 | 14588 ft | 337 kts | 107° |
| 2026-04-22 18:23 | 47.39390 | 142.12550 | 14172 ft | 335 kts | 115° |
| 2026-04-22 18:23 | 47.38231 | 142.15513 | 13767 ft | 332 kts | 128° |
| 2026-04-22 18:24 | 47.34885 | 142.19930 | 13112 ft | 320 kts | 146° |
| 2026-04-22 18:24 | 47.33087 | 142.21844 | 12800 ft | 316 kts | 146° |
| 2026-04-22 18:24 | 47.29567 | 142.25619 | 12196 ft | 311 kts | 146° |
| 2026-04-22 18:25 | 47.27816 | 142.27495 | 11889 ft | 309 kts | 146° |
| 2026-04-22 18:25 | 47.26075 | 142.29360 | 11583 ft | 308 kts | 146° |
| 2026-04-22 18:25 | 47.24341 | 142.31215 | 11279 ft | 306 kts | 146° |
| 2026-04-22 18:26 | 47.20902 | 142.34877 | 10690 ft | 304 kts | 146° |
| 2026-04-22 18:26 | 47.19213 | 142.36667 | 10398 ft | 302 kts | 146° |
| 2026-04-22 18:26 | 47.17510 | 142.38476 | 10104 ft | 301 kts | 146° |
| 2026-04-22 18:26 | 47.15817 | 142.40274 | 9840 ft | 297 kts | 146° |
| 2026-04-22 18:27 | 47.14160 | 142.42032 | 9608 ft | 291 kts | 147° |
| 2026-04-22 18:27 | 47.12530 | 142.43757 | 9437 ft | 287 kts | 147° |
| 2026-04-22 18:27 | 47.10912 | 142.45470 | 9195 ft | 286 kts | 147° |
| 2026-04-22 18:27 | 47.09298 | 142.47178 | 8924 ft | 285 kts | 147° |
| 2026-04-22 18:28 | 47.07692 | 142.48873 | 8650 ft | 283 kts | 147° |
| 2026-04-22 18:28 | 47.06096 | 142.50559 | 8412 ft | 282 kts | 147° |
| 2026-04-22 18:28 | 47.04503 | 142.52241 | 8143 ft | 281 kts | 147° |
| 2026-04-22 18:28 | 47.02914 | 142.53915 | 7882 ft | 280 kts | 146° |
| 2026-04-22 18:29 | 47.01332 | 142.55578 | 7626 ft | 279 kts | 146° |
| 2026-04-22 18:29 | 46.99757 | 142.57235 | 7361 ft | 278 kts | 146° |
| 2026-04-22 18:29 | 46.98210 | 142.58867 | 7112 ft | 277 kts | 146° |
| 2026-04-22 18:29 | 46.96645 | 142.60514 | 6854 ft | 276 kts | 146° |
| 2026-04-22 18:30 | 46.95087 | 142.62154 | 6603 ft | 275 kts | 146° |
| 2026-04-22 18:30 | 46.91990 | 142.65409 | 6089 ft | 273 kts | 146° |
| 2026-04-22 18:30 | 46.90449 | 142.67025 | 5830 ft | 272 kts | 146° |
| 2026-04-22 18:31 | 46.88915 | 142.68631 | 5579 ft | 270 kts | 146° |
| 2026-04-22 18:31 | 46.87388 | 142.70222 | 5321 ft | 269 kts | 146° |
| 2026-04-22 18:31 | 46.85860 | 142.71797 | 5094 ft | 267 kts | 149° |
| 2026-04-22 18:31 | 46.84147 | 142.72730 | 4883 ft | 263 kts | 174° |
| 2026-04-22 18:32 | 46.82350 | 142.72478 | 4689 ft | 260 kts | 200° |
| 2026-04-22 18:32 | 46.80839 | 142.71140 | 4488 ft | 258 kts | 225° |
| 2026-04-22 18:32 | 46.79588 | 142.69256 | 4294 ft | 259 kts | 221° |
| 2026-04-22 18:32 | 46.78074 | 142.67856 | 4095 ft | 259 kts | 203° |
| 2026-04-22 18:33 | 46.76382 | 142.66962 | 3938 ft | 259 kts | 200° |
| 2026-04-22 18:33 | 46.74682 | 142.66111 | 3810 ft | 258 kts | 199° |
| 2026-04-22 18:33 | 46.72977 | 142.65275 | 3710 ft | 258 kts | 199° |
| 2026-04-22 18:33 | 46.71277 | 142.64447 | 3531 ft | 257 kts | 199° |
| 2026-04-22 18:34 | 46.69573 | 142.63639 | 3293 ft | 255 kts | 194° |
| 2026-04-22 18:34 | 46.67882 | 142.63043 | 3092 ft | 244 kts | 196° |
| 2026-04-22 18:34 | 46.66274 | 142.62476 | 2950 ft | 233 kts | 186° |
| 2026-04-22 18:34 | 46.64714 | 142.62870 | 2664 ft | 228 kts | 149° |
| 2026-04-22 18:35 | 46.63734 | 142.64595 | 2414 ft | 223 kts | 107° |
| 2026-04-22 18:35 | 46.63581 | 142.66778 | 2165 ft | 218 kts | 91° |
| 2026-04-22 18:35 | 46.63479 | 142.68966 | 2047 ft | 212 kts | 103° |
| 2026-04-22 18:35 | 46.63028 | 142.70970 | 2052 ft | 212 kts | 112° |
| 2026-04-22 18:36 | 46.62441 | 142.72932 | 2049 ft | 212 kts | 116° |
| 2026-04-22 18:36 | 46.61547 | 142.74600 | 2048 ft | 210 kts | 145° |
| 2026-04-22 18:36 | 46.60210 | 142.75406 | 2052 ft | 210 kts | 174° |
| 2026-04-22 18:36 | 46.58781 | 142.75163 | 2052 ft | 209 kts | 204° |
| 2026-04-22 18:37 | 46.57647 | 142.73889 | 2051 ft | 208 kts | 235° |
| 2026-04-22 18:37 | 46.57146 | 142.71945 | 2052 ft | 208 kts | 267° |
| 2026-04-22 18:37 | 46.57248 | 142.70566 | 2049 ft | 208 kts | 288° |
| 2026-04-22 18:37 | 46.58426 | 142.68399 | 2052 ft | 210 kts | 331° |
| 2026-04-22 18:38 | 46.59827 | 142.67883 | 2054 ft | 211 kts | 2° |
| 2026-04-22 18:38 | 46.61271 | 142.68245 | 2056 ft | 211 kts | 13° |
| 2026-04-22 18:38 | 46.62706 | 142.68712 | 2052 ft | 211 kts | 13° |
| 2026-04-22 18:39 | 46.65558 | 142.69595 | 2041 ft | 211 kts | 10° |
| 2026-04-22 18:39 | 46.67003 | 142.69961 | 1972 ft | 210 kts | 10° |
| 2026-04-22 18:39 | 46.68444 | 142.70332 | 1969 ft | 210 kts | 10° |
| 2026-04-22 18:39 | 46.69882 | 142.70713 | 1981 ft | 209 kts | 11° |
| 2026-04-22 18:40 | 46.71266 | 142.71095 | 2023 ft | 196 kts | 10° |
| 2026-04-22 18:40 | 46.72605 | 142.71311 | 2037 ft | 192 kts | 5° |
| 2026-04-22 18:40 | 46.73934 | 142.71402 | 2047 ft | 190 kts | 2° |
| 2026-04-22 18:40 | 46.75254 | 142.71431 | 2031 ft | 189 kts | 359° |
| 2026-04-22 18:41 | 46.76574 | 142.71405 | 2010 ft | 190 kts | 0° |
| 2026-04-22 18:41 | 46.77859 | 142.71449 | 1887 ft | 180 kts | 4° |
| 2026-04-22 18:41 | 46.79081 | 142.71565 | 1672 ft | 174 kts | 3° |
| 2026-04-22 18:41 | 46.80267 | 142.71598 | 1362 ft | 166 kts | 359° |
| 2026-04-22 18:42 | 46.81393 | 142.71521 | 1087 ft | 156 kts | 358° |
| 2026-04-22 18:42 | 46.82446 | 142.71494 | 852 ft | 147 kts | 2° |
| 2026-04-22 18:42 | 46.83443 | 142.71581 | 668 ft | 141 kts | 3° |
| 2026-04-22 18:42 | 46.84412 | 142.71659 | 510 ft | 138 kts | 2° |
| 2026-04-22 18:43 | 46.85359 | 142.71670 | 379 ft | 137 kts | 0° |
| 2026-04-22 18:43 | 46.86313 | 142.71675 | 220 ft | 137 kts | 1° |
| 2026-04-22 18:43 | 46.87262 | 142.71701 | 58 ft | 135 kts | 1° |
| 2026-04-22 18:43 | 46.88048 | 142.71720 | 53 ft | 86 kts | 0° |
| 2026-04-22 18:44 | 46.88525 | 142.71729 | 53 ft | 47 kts | 1° |
| 2026-04-22 18:44 | 46.88696 | 142.71790 | 56 ft | 21 kts | 70° |
| 2026-04-22 18:44 | 46.88699 | 142.71928 | 57 ft | 14 kts | 93° |
| 2026-04-22 18:44 | 46.88698 | 142.71975 | 57 ft | 0 kts | 92° |
| 2026-04-22 18:45 | 46.88697 | 142.71999 | 57 ft | 10 kts | 91° |
| 2026-04-22 18:45 | 46.88638 | 142.72110 | 55 ft | 19 kts | 176° |
| 2026-04-22 18:45 | 46.88554 | 142.72149 | 55 ft | 9 kts | 111° |
| 2026-04-22 18:45 | 46.88552 | 142.72194 | 56 ft | 3 kts | 91° |
| 2026-04-22 18:46 | 46.88552 | 142.72209 | 56 ft | 0 kts | 90° |